createdAt,value
2023-02-28T00:00:39.230Z,-2.62
2023-02-28T00:03:41.982Z,-2.54
2023-02-28T00:06:44.655Z,-2.69
2023-02-28T00:09:47.211Z,-2.62
2023-02-28T00:12:52.829Z,-2.69
2023-02-28T00:16:06.312Z,-2.71
2023-02-28T00:19:09.138Z,-2.77
2023-02-28T00:22:11.804Z,-2.76
2023-02-28T00:25:22.266Z,-2.77
2023-02-28T00:28:25.222Z,-2.69
2023-02-28T00:31:28.157Z,-2.60
2023-02-28T00:34:30.847Z,-2.66
2023-02-28T00:37:33.900Z,-2.61
2023-02-28T00:40:36.666Z,-2.61
2023-02-28T00:43:41.262Z,-2.63
2023-02-28T00:46:43.940Z,-2.67
2023-02-28T00:49:46.525Z,-2.63
2023-02-28T00:52:49.091Z,-2.55
2023-02-28T00:55:52.037Z,-2.49
2023-02-28T00:58:54.522Z,-2.47
2023-02-28T01:01:57.112Z,-2.68
2023-02-28T01:04:59.759Z,-2.70
2023-02-28T01:08:06.118Z,-2.68
2023-02-28T01:11:13.592Z,-2.54
2023-02-28T01:14:18.305Z,-2.50
2023-02-28T01:17:21.879Z,-2.44
2023-02-28T01:20:24.735Z,-2.56
2023-02-28T01:23:27.415Z,-2.55
2023-02-28T01:26:30.761Z,-2.55
2023-02-28T01:29:33.256Z,-2.52
2023-02-28T01:32:36.312Z,-2.65
2023-02-28T01:35:39.732Z,-2.70
2023-02-28T01:38:43.917Z,-2.77
2023-02-28T01:41:46.578Z,-2.77
2023-02-28T01:45:04.492Z,-2.72
2023-02-28T01:48:09.333Z,-2.54
2023-02-28T01:51:21.321Z,-2.60
2023-02-28T01:54:26.904Z,-2.51
2023-02-28T01:57:38.701Z,-2.49
2023-02-28T02:00:43.778Z,-2.54
2023-02-28T02:03:46.669Z,-2.55
2023-02-28T02:06:49.597Z,-2.57
2023-02-28T02:10:01.422Z,-2.50
2023-02-28T02:13:41.685Z,-2.41
2023-02-28T02:17:02.506Z,-2.27
2023-02-28T02:20:36.207Z,-2.24
2023-02-28T02:24:01.029Z,-2.22
2023-02-28T02:27:03.478Z,-2.12
2023-02-28T02:30:33.090Z,-2.02
2023-02-28T02:33:38.502Z,-1.97
2023-02-28T02:36:56.785Z,-1.90
2023-02-28T02:40:20.975Z,-1.84
2023-02-28T02:43:51.468Z,-1.80
2023-02-28T02:47:00.558Z,-1.76
2023-02-28T02:50:07.399Z,-1.84
2023-02-28T02:53:10.489Z,-1.85
2023-02-28T02:56:15.352Z,-1.79
2023-02-28T02:59:22.591Z,-1.81
2023-02-28T03:02:27.248Z,-1.81
2023-02-28T03:05:35.642Z,-1.90
2023-02-28T03:08:39.277Z,-1.91
2023-02-28T03:11:43.305Z,-2.00
2023-02-28T03:15:18.499Z,-2.09
2023-02-28T03:18:44.268Z,-1.98
2023-02-28T03:22:10.012Z,-1.89
2023-02-28T03:25:23.377Z,-1.87
2023-02-28T03:28:28.601Z,-1.85
2023-02-28T03:31:44.989Z,-1.85
2023-02-28T03:34:50.811Z,-1.85
2023-02-28T03:37:56.605Z,-1.87
2023-02-28T03:41:23.349Z,-1.83
2023-02-28T03:44:30.442Z,-1.88
2023-02-28T03:47:37.541Z,-1.82
2023-02-28T03:50:42.497Z,-1.83
2023-02-28T03:53:52.810Z,-1.94
2023-02-28T03:57:02.489Z,-1.98
2023-02-28T04:00:13.347Z,-1.98
2023-02-28T04:03:15.783Z,-2.05
2023-02-28T04:06:21.528Z,-2.09
2023-02-28T04:09:24.711Z,-2.08
2023-02-28T04:12:27.487Z,-2.08
2023-02-28T04:15:30.089Z,-2.12
2023-02-28T04:18:32.733Z,-2.15
2023-02-28T04:21:40.673Z,-2.12
2023-02-28T04:24:43.314Z,-2.12
2023-02-28T04:27:46.066Z,-2.13
2023-02-28T04:30:48.769Z,-2.09
2023-02-28T04:33:51.432Z,-2.07
2023-02-28T04:37:11.584Z,-2.10
2023-02-28T04:40:15.298Z,-2.13
2023-02-28T04:43:18.033Z,-2.06
2023-02-28T04:46:21.310Z,-1.99
2023-02-28T04:49:23.924Z,-2.02
2023-02-28T04:52:28.710Z,-1.99
2023-02-28T04:55:31.272Z,-2.03
2023-02-28T04:58:35.028Z,-2.01
2023-02-28T05:01:37.785Z,-1.99
2023-02-28T05:04:40.576Z,-1.98
2023-02-28T05:07:43.171Z,-2.06
2023-02-28T05:10:45.787Z,-2.20
2023-02-28T05:13:49.088Z,-2.36
2023-02-28T05:16:52.041Z,-2.31
2023-02-28T05:19:57.207Z,-2.31
2023-02-28T05:23:04.601Z,-2.31
2023-02-28T05:26:07.127Z,-2.28
2023-02-28T05:29:10.328Z,-2.21
2023-02-28T05:32:13.540Z,-2.25
2023-02-28T05:35:16.147Z,-2.41
2023-02-28T05:38:19.106Z,-2.48
2023-02-28T05:41:22.716Z,-2.41
2023-02-28T05:44:25.749Z,-2.35
2023-02-28T05:47:28.277Z,-2.35
2023-02-28T05:50:30.868Z,-2.36
2023-02-28T05:53:33.971Z,-2.26
2023-02-28T05:56:36.661Z,-2.26
2023-02-28T05:59:41.105Z,-2.48
2023-02-28T06:02:43.856Z,-2.47
2023-02-28T06:05:46.524Z,-2.33
2023-02-28T06:08:49.371Z,-2.34
2023-02-28T06:11:52.167Z,-2.29
2023-02-28T06:14:54.939Z,-2.24
2023-02-28T06:17:57.962Z,-2.34
2023-02-28T06:21:00.821Z,-2.42
2023-02-28T06:24:03.876Z,-2.33
2023-02-28T06:27:06.878Z,-2.35
2023-02-28T06:30:10.790Z,-2.39
2023-02-28T06:33:13.545Z,-2.37
2023-02-28T06:36:17.469Z,-2.26
2023-02-28T06:39:20.630Z,-2.28
2023-02-28T06:42:30.004Z,-2.23
2023-02-28T06:45:32.986Z,-2.22
2023-02-28T06:48:36.545Z,-2.23
2023-02-28T06:51:41.104Z,-2.34
2023-02-28T06:54:43.941Z,-2.21
2023-02-28T06:57:46.679Z,-2.21
2023-02-28T07:00:52.943Z,-2.27
2023-02-28T07:03:55.818Z,-2.33
2023-02-28T07:06:59.454Z,-2.15
2023-02-28T07:10:02.534Z,-2.21
2023-02-28T07:13:06.305Z,-2.09
2023-02-28T07:16:11.958Z,-2.04
2023-02-28T07:19:14.710Z,-1.98
2023-02-28T07:22:17.564Z,-1.88
2023-02-28T07:25:20.432Z,-1.79
2023-02-28T07:28:23.223Z,-1.62
2023-02-28T07:31:25.938Z,-1.52
2023-02-28T07:34:28.784Z,-1.45
2023-02-28T07:37:32.792Z,-1.38
2023-02-28T07:40:37.111Z,-1.35
2023-02-28T07:43:39.719Z,-1.44
2023-02-28T07:46:42.457Z,-1.17
2023-02-28T07:49:46.695Z,-1.29
2023-02-28T07:52:49.369Z,-1.17
2023-02-28T07:55:52.098Z,-1.09
2023-02-28T07:58:54.902Z,-1.06
2023-02-28T08:01:58.728Z,-0.93
2023-02-28T08:05:02.196Z,-0.88
2023-02-28T08:08:05.305Z,-0.74
2023-02-28T08:11:07.915Z,-0.68
2023-02-28T08:14:10.721Z,-0.68
2023-02-28T08:17:13.863Z,-0.72
2023-02-28T08:20:16.989Z,-0.57
2023-02-28T08:23:20.164Z,-0.73
2023-02-28T08:26:23.373Z,-0.61
2023-02-28T08:29:26.768Z,-0.54
2023-02-28T08:32:30.712Z,-0.37
2023-02-28T08:35:33.488Z,-0.28
2023-02-28T08:38:37.490Z,-0.17
2023-02-28T08:41:40.273Z,-0.09
2023-02-28T08:44:43.030Z,0.02
2023-02-28T08:47:45.777Z,0.30
2023-02-28T08:51:07.651Z,0.42
2023-02-28T08:54:13.724Z,0.42
2023-02-28T08:57:16.481Z,0.48
2023-02-28T09:00:19.773Z,0.66
2023-02-28T09:03:24.344Z,0.77
2023-02-28T09:06:29.130Z,0.99
2023-02-28T09:09:32.120Z,1.11
2023-02-28T09:12:36.718Z,1.19
2023-02-28T09:15:40.142Z,1.30
2023-02-28T09:18:43.099Z,1.43
2023-02-28T09:21:45.897Z,1.48
2023-02-28T09:24:48.596Z,1.57
2023-02-28T09:27:51.725Z,1.40
2023-02-28T09:30:55.541Z,1.51
2023-02-28T09:33:58.629Z,1.70
2023-02-28T09:37:01.417Z,1.95
2023-02-28T09:40:05.028Z,2.15
2023-02-28T09:43:10.561Z,2.06
2023-02-28T09:46:27.798Z,2.13
2023-02-28T09:49:39.008Z,2.29
2023-02-28T09:52:42.110Z,2.37
2023-02-28T09:55:50.165Z,2.39
2023-02-28T09:59:14.370Z,2.61
2023-02-28T10:02:32.340Z,2.63
2023-02-28T10:05:44.382Z,2.81
2023-02-28T10:09:06.763Z,2.86
2023-02-28T10:12:11.136Z,3.25
2023-02-28T10:15:18.288Z,3.02
2023-02-28T10:18:26.490Z,2.90
2023-02-28T10:21:40.130Z,3.14
2023-02-28T10:24:49.349Z,3.09
2023-02-28T10:27:55.442Z,2.87
2023-02-28T10:30:59.943Z,3.08
2023-02-28T10:34:04.076Z,3.05
2023-02-28T10:37:09.501Z,3.11
2023-02-28T10:40:21.253Z,3.16
2023-02-28T10:43:25.582Z,3.34
2023-02-28T10:46:31.347Z,3.21
2023-02-28T10:49:35.248Z,3.09
2023-02-28T10:52:44.006Z,3.21
2023-02-28T10:55:46.758Z,3.05
2023-02-28T10:59:16.744Z,3.36
2023-02-28T11:05:37.377Z,3.25
2023-02-28T11:09:08.082Z,3.26
2023-02-28T11:12:30.481Z,3.31
2023-02-28T11:15:35.306Z,3.36
2023-02-28T11:18:53.732Z,3.68
2023-02-28T11:22:02.215Z,3.66
2023-02-28T11:25:28.694Z,3.52
2023-02-28T11:28:34.519Z,3.47
2023-02-28T11:31:37.265Z,3.79
2023-02-28T11:34:41.029Z,3.69
2023-02-28T11:37:43.884Z,3.74
2023-02-28T11:40:55.626Z,3.91
2023-02-28T11:44:24.592Z,3.86
2023-02-28T11:47:56.305Z,3.83
2023-02-28T11:50:58.881Z,4.38
2023-02-28T11:54:36.591Z,3.93
2023-02-28T11:57:50.704Z,3.61
2023-02-28T12:01:02.291Z,3.65
2023-02-28T12:04:17.088Z,3.80
2023-02-28T12:07:31.602Z,3.87
2023-02-28T12:10:49.966Z,3.98
2023-02-28T12:14:15.388Z,3.86
2023-02-28T12:17:32.112Z,3.69
2023-02-28T12:20:53.564Z,3.90
2023-02-28T12:24:02.325Z,3.91
2023-02-28T12:27:09.114Z,4.05
2023-02-28T12:30:19.662Z,3.88
2023-02-28T12:33:25.853Z,4.08
2023-02-28T12:36:29.790Z,4.00
2023-02-28T12:39:49.502Z,4.16
2023-02-28T12:42:56.621Z,4.17
2023-02-28T12:46:27.339Z,4.07
2023-02-28T12:49:34.934Z,4.11
2023-02-28T12:52:57.550Z,4.10
2023-02-28T12:56:17.085Z,4.08
2023-02-28T12:59:32.356Z,4.16
2023-02-28T13:02:46.995Z,4.32
2023-02-28T13:06:14.108Z,4.55
2023-02-28T13:09:17.286Z,4.65
2023-02-28T13:12:21.793Z,4.77
2023-02-28T13:15:29.485Z,4.59
2023-02-28T13:18:47.197Z,4.60
2023-02-28T13:21:50.908Z,4.77
2023-02-28T13:24:55.109Z,4.92
2023-02-28T13:28:02.097Z,5.02
2023-02-28T13:31:06.561Z,4.97
2023-02-28T13:34:16.955Z,4.91
2023-02-28T13:37:43.791Z,4.97
2023-02-28T13:40:46.701Z,5.00
2023-02-28T13:44:10.621Z,4.88
2023-02-28T13:47:25.986Z,4.89
2023-02-28T13:50:34.706Z,5.05
2023-02-28T13:53:54.718Z,4.97
2023-02-28T13:57:12.438Z,5.03
2023-02-28T14:00:34.033Z,5.17
2023-02-28T14:03:53.638Z,4.95
2023-02-28T14:06:57.189Z,5.08
2023-02-28T14:10:06.739Z,5.10
2023-02-28T14:13:46.592Z,5.18
2023-02-28T14:16:51.337Z,5.23
2023-02-28T14:19:54.213Z,5.10
2023-02-28T14:23:03.022Z,5.16
2023-02-28T14:26:18.667Z,5.13
2023-02-28T14:29:36.564Z,5.08
2023-02-28T14:33:03.494Z,5.04
2023-02-28T14:36:15.213Z,5.18
2023-02-28T14:39:24.212Z,5.11
2023-02-28T14:42:45.766Z,4.88
2023-02-28T14:45:55.779Z,5.09
2023-02-28T14:48:58.569Z,5.02
2023-02-28T14:52:13.498Z,5.01
2023-02-28T14:55:20.053Z,5.11
2023-02-28T14:58:26.994Z,4.74
2023-02-28T15:01:30.449Z,4.76
2023-02-28T15:04:34.771Z,4.60
2023-02-28T15:07:38.048Z,4.69
2023-02-28T15:10:54.209Z,4.72
2023-02-28T15:13:57.769Z,4.73
2023-02-28T15:17:07.528Z,4.80
2023-02-28T15:20:13.963Z,4.85
2023-02-28T15:23:17.033Z,4.77
2023-02-28T15:26:23.246Z,4.56
2023-02-28T15:29:28.407Z,4.31
2023-02-28T15:32:36.986Z,4.13
2023-02-28T15:35:40.105Z,4.05
2023-02-28T15:38:43.771Z,4.12
2023-02-28T15:41:46.814Z,4.10
2023-02-28T15:44:49.746Z,3.88
2023-02-28T15:47:53.621Z,3.79
2023-02-28T15:51:18.455Z,3.76
2023-02-28T15:54:25.807Z,3.69
2023-02-28T15:57:30.677Z,3.55
2023-02-28T16:00:36.674Z,3.44
2023-02-28T16:03:46.835Z,3.05
2023-02-28T16:07:06.918Z,2.97
2023-02-28T16:10:12.402Z,2.98
2023-02-28T16:13:16.480Z,2.97
2023-02-28T16:16:21.602Z,2.97
2023-02-28T16:19:25.134Z,2.77
2023-02-28T16:22:28.121Z,2.58
2023-02-28T16:25:38.255Z,2.44
2023-02-28T16:28:40.961Z,2.36
2023-02-28T16:31:43.707Z,2.33
2023-02-28T16:34:46.815Z,2.26
2023-02-28T16:37:49.775Z,2.20
2023-02-28T16:40:53.199Z,2.09
2023-02-28T16:44:01.355Z,1.93
2023-02-28T16:47:05.342Z,2.02
2023-02-28T16:50:18.591Z,2.09
2023-02-28T16:53:24.170Z,2.11
2023-02-28T16:56:27.462Z,2.00
2023-02-28T16:59:30.340Z,1.97
2023-02-28T17:02:33.491Z,1.92
2023-02-28T17:05:39.163Z,1.84
2023-02-28T17:08:41.916Z,1.87
2023-02-28T17:11:45.680Z,1.85
2023-02-28T17:14:48.728Z,1.83
2023-02-28T17:17:51.968Z,1.84
2023-02-28T17:20:54.755Z,1.72
2023-02-28T17:23:57.550Z,1.79
2023-02-28T17:27:00.585Z,1.80
2023-02-28T17:30:22.941Z,1.72
2023-02-28T17:33:25.718Z,1.62
2023-02-28T17:36:29.126Z,1.54
2023-02-28T17:39:32.183Z,1.48
2023-02-28T17:42:35.189Z,1.43
2023-02-28T17:45:38.191Z,1.33
2023-02-28T17:48:41.228Z,1.37
2023-02-28T17:51:44.568Z,1.30
2023-02-28T17:54:47.528Z,1.18
2023-02-28T17:57:50.371Z,1.19
2023-02-28T18:00:55.656Z,1.09
2023-02-28T18:03:58.507Z,1.11
2023-02-28T18:07:01.592Z,1.09
2023-02-28T18:10:05.179Z,1.11
2023-02-28T18:13:08.964Z,1.04
2023-02-28T18:16:12.431Z,0.85
2023-02-28T18:19:17.531Z,0.80
2023-02-28T18:22:20.557Z,0.80
2023-02-28T18:25:24.479Z,0.74
2023-02-28T18:28:30.433Z,0.65
2023-02-28T18:31:34.175Z,0.59
2023-02-28T18:34:37.880Z,0.57
2023-02-28T18:37:42.429Z,0.57
2023-02-28T18:40:54.433Z,0.50
2023-02-28T18:44:13.815Z,0.55
2023-02-28T18:47:26.379Z,0.51
2023-02-28T18:50:31.816Z,0.58
2023-02-28T18:53:37.195Z,0.61
2023-02-28T18:56:40.546Z,0.61
2023-02-28T18:59:43.659Z,0.57
2023-02-28T19:02:46.703Z,0.60
2023-02-28T19:05:50.959Z,0.62
2023-02-28T19:08:55.987Z,0.70
2023-02-28T19:11:58.970Z,0.53
2023-02-28T19:15:03.417Z,0.57
2023-02-28T19:18:06.731Z,0.55
2023-02-28T19:21:12.514Z,0.47
2023-02-28T19:24:16.194Z,0.51
2023-02-28T19:27:22.259Z,0.46
2023-02-28T19:30:26.363Z,0.35
2023-02-28T19:33:29.810Z,0.37
2023-02-28T19:36:32.601Z,0.23
2023-02-28T19:39:41.487Z,0.35
2023-02-28T19:42:44.314Z,0.13
2023-02-28T19:45:47.315Z,-0.01
2023-02-28T19:48:53.574Z,-0.03
2023-02-28T19:51:56.391Z,0.13
2023-02-28T19:54:59.133Z,-0.01
2023-02-28T19:58:01.872Z,-0.06
2023-02-28T20:01:16.066Z,-0.11
2023-02-28T20:04:19.058Z,-0.15
2023-02-28T20:07:23.395Z,-0.19
2023-02-28T20:10:29.156Z,-0.25
2023-02-28T20:13:34.002Z,-0.21
2023-02-28T20:16:37.072Z,-0.20
2023-02-28T20:19:41.535Z,-0.25
2023-02-28T20:22:46.428Z,-0.20
2023-02-28T20:25:51.814Z,-0.28
2023-02-28T20:28:55.432Z,-0.28
2023-02-28T20:31:58.482Z,-0.18
2023-02-28T20:35:01.270Z,-0.13
2023-02-28T20:38:04.127Z,-0.19
2023-02-28T20:41:07.424Z,-0.18
2023-02-28T20:44:12.711Z,-0.10
2023-02-28T20:47:15.631Z,-0.10
2023-02-28T20:50:18.319Z,-0.18
2023-02-28T20:53:21.239Z,-0.21
2023-02-28T20:56:24.143Z,-0.31
2023-02-28T20:59:27.505Z,-0.38
2023-02-28T21:02:30.774Z,-0.37
2023-02-28T21:05:33.936Z,-0.38
2023-02-28T21:08:37.768Z,-0.36
2023-02-28T21:11:41.846Z,-0.46
2023-02-28T21:14:44.858Z,-0.57
2023-02-28T21:17:48.905Z,-0.68
2023-02-28T21:20:51.641Z,-0.87
2023-02-28T21:23:54.384Z,-0.88
2023-02-28T21:26:57.894Z,-0.87
2023-02-28T21:30:00.858Z,-0.92
2023-02-28T21:33:03.725Z,-0.92
2023-02-28T21:36:09.443Z,-0.93
2023-02-28T21:39:23.424Z,-0.84
2023-02-28T21:42:26.359Z,-0.80
2023-02-28T21:45:29.552Z,-0.90
2023-02-28T21:48:32.426Z,-0.91
2023-02-28T21:51:35.130Z,-0.84
2023-02-28T21:54:37.684Z,-0.82
2023-02-28T21:57:40.404Z,-0.96
2023-02-28T22:00:43.317Z,-0.94
2023-02-28T22:03:46.864Z,-0.94
2023-02-28T22:07:00.000Z,-0.87
2023-02-28T22:10:02.684Z,-0.97
2023-02-28T22:13:05.265Z,-0.95
2023-02-28T22:16:10.635Z,-0.97
2023-02-28T22:19:13.581Z,-1.07
2023-02-28T22:22:16.273Z,-1.07
2023-02-28T22:25:19.590Z,-1.07
2023-02-28T22:28:23.763Z,-1.03
2023-02-28T22:31:32.716Z,-1.00
2023-02-28T22:34:35.393Z,-1.12
2023-02-28T22:37:38.176Z,-1.20
2023-02-28T22:40:40.786Z,-1.23
2023-02-28T22:43:44.145Z,-1.25
2023-02-28T22:46:46.873Z,-1.26
2023-02-28T22:49:49.817Z,-1.37
2023-02-28T22:52:53.011Z,-1.37
2023-02-28T22:55:56.718Z,-1.35
2023-02-28T22:59:01.221Z,-1.21
2023-02-28T23:02:04.038Z,-1.16
2023-02-28T23:05:06.987Z,-1.17
2023-02-28T23:08:09.633Z,-1.35
2023-02-28T23:11:22.259Z,-1.36
2023-02-28T23:14:25.194Z,-1.44
2023-02-28T23:17:27.779Z,-1.44
2023-02-28T23:20:30.375Z,-1.42
2023-02-28T23:23:34.152Z,-1.29
2023-02-28T23:26:38.289Z,-1.36
2023-02-28T23:29:40.968Z,-1.29
2023-02-28T23:32:43.905Z,-1.32
2023-02-28T23:35:46.593Z,-1.37
2023-02-28T23:38:50.582Z,-1.35
2023-02-28T23:41:53.339Z,-1.35
2023-02-28T23:44:56.165Z,-1.42
2023-02-28T23:47:58.861Z,-1.43
2023-02-28T23:51:08.816Z,-1.42
2023-02-28T23:54:11.621Z,-1.37
2023-02-28T23:57:14.433Z,-1.38
